Time;durP1;ratioP1;P1;durP2;ratioP2;P2;SDS_P1;SDS_P2;PMS_P1;PMS_P2;Temp;Humidity;BMP_temperature;BMP_pressure;BME280_temperature;BME280_humidity;BME280_pressure;Samples;Min_cycle;Max_cycle;Signal;HPM_P1;HPM_P2
2022/07/08 00:02:05;;;;;;;42.47;39.35;;;;;;;14.83;100.00;101105.22;6042390;23;20449;-85
2022/07/08 00:04:37;;;;;;;43.65;40.25;;;;;;;14.47;100.00;101109.50;6044719;23;20023;-84
2022/07/08 00:07:04;;;;;;;45.70;42.10;;;;;;;14.89;100.00;101105.16;6039759;23;20349;-82
2022/07/08 00:09:36;;;;;;;47.25;43.72;;;;;;;14.87;100.00;101099.19;6042413;23;20472;-82
2022/07/08 00:12:04;;;;;;;37.55;34.65;;;;;;;14.84;100.00;101098.84;6045431;23;20020;-83
2022/07/08 00:14:41;;;;;;;44.85;41.20;;;;;;;14.98;100.00;101097.63;6043867;23;20023;-82
2022/07/08 00:17:15;;;;;;;39.28;36.30;;;;;;;14.69;100.00;101087.72;6045774;23;20020;-82
2022/07/08 00:19:52;;;;;;;38.28;35.17;;;;;;;14.55;100.00;101090.50;6041747;23;20078;-83
2022/07/08 00:22:23;;;;;;;43.53;40.13;;;;;;;14.40;100.00;101084.69;6044997;23;20027;-82
2022/07/08 00:24:52;;;;;;;42.10;38.70;;;;;;;14.62;100.00;101075.25;6042247;23;20035;-81
2022/07/08 00:27:19;;;;;;;40.92;37.83;;;;;;;14.49;100.00;101064.66;6043586;23;20023;-84
2022/07/08 00:29:49;;;;;;;42.08;38.95;;;;;;;14.49;100.00;101067.31;6044142;23;20330;-83
2022/07/08 00:32:21;;;;;;;43.17;39.92;;;;;;;14.86;100.00;101056.66;6043673;23;20030;-83
2022/07/08 00:34:54;;;;;;;42.60;39.60;;;;;;;14.84;100.00;101040.81;6050424;23;20019;-83
2022/07/08 00:37:44;;;;;;;43.95;40.42;;;;;;;14.73;100.00;101048.78;6044261;23;20026;-82
2022/07/08 00:40:56;;;;;;;;;;;;;;;;;;;;;
2022/07/08 00:43:53;;;;;;;36.30;32.92;;;;;;;14.87;100.00;101040.38;6017510;23;20027;-83
2022/07/08 00:46:35;;;;;;;43.58;40.20;;;;;;;14.32;100.00;101053.75;6046743;23;20369;-83
2022/07/08 00:49:04;;;;;;;50.78;46.97;;;;;;;14.76;100.00;101045.66;6033392;23;20038;-82
2022/07/08 00:51:34;;;;;;;45.72;42.00;;;;;;;14.91;100.00;101058.63;6052365;23;20023;-84
2022/07/08 00:54:06;;;;;;;46.25;42.47;;;;;;;15.06;100.00;101053.69;6042377;23;20023;-81
2022/07/08 00:56:35;;;;;;;44.20;40.80;;;;;;;15.08;100.00;101060.44;6045596;23;20027;-81
2022/07/08 00:59:08;;;;;;;36.10;33.25;;;;;;;15.07;100.00;101069.53;6048489;23;20055;-82
2022/07/08 01:01:35;;;;;;;37.50;34.38;;;;;;;15.18;100.00;101067.09;6044430;23;20019;-83
2022/07/08 01:04:08;;;;;;;32.83;30.23;;;;;;;14.69;100.00;101063.66;6041274;23;20023;-83
2022/07/08 01:06:46;;;;;;;;;;;;;;;14.85;100.00;101069.19;6046532;23;20031;-82
2022/07/08 01:12:23;;;;;;;31.20;28.85;;;;;;;13.93;100.00;101074.47;6043888;23;20039;-83
2022/07/08 01:14:55;;;;;;;;;;;;;;;14.54;100.00;101062.16;6048229;23;20027;-81
2022/07/08 01:17:48;;;;;;;39.13;36.13;;;;;;;14.83;100.00;101060.59;6046854;23;19926;-86
2022/07/08 01:20:18;;;;;;;39.40;36.20;;;;;;;14.76;100.00;101053.66;6046923;23;20023;-83
2022/07/08 01:22:49;;;;;;;33.20;30.45;;;;;;;14.30;100.00;101066.50;6049716;23;20031;-83
2022/07/08 01:25:25;;;;;;;32.72;30.17;;;;;;;14.03;100.00;101057.13;6049403;23;20007;-82
2022/07/08 01:27:56;;;;;;;30.83;28.52;;;;;;;13.79;100.00;101056.94;6046174;23;20015;-82
2022/07/08 01:30:49;;;;;;;33.47;30.80;;;;;;;14.02;100.00;101052.84;6052490;23;20035;-84
2022/07/08 01:33:18;;;;;;;34.92;32.22;;;;;;;14.38;100.00;101052.88;6041386;23;20086;-85
2022/07/08 01:35:48;;;;;;;33.55;30.67;;;;;;;14.54;100.00;101050.66;6052364;23;20032;-84
2022/07/08 01:38:17;;;;;;;32.47;29.98;;;;;;;14.63;100.00;101044.78;6054878;23;20038;-82
2022/07/08 01:40:57;;;;;;;37.65;34.78;;;;;;;14.23;100.00;101052.41;6046887;23;20024;-83
2022/07/08 01:43:26;;;;;;;39.00;35.65;;;;;;;14.31;100.00;101048.63;6041546;23;20461;-82
2022/07/08 01:45:55;;;;;;;41.35;38.05;;;;;;;14.45;100.00;101050.09;6046887;23;20024;-85
2022/07/08 01:48:32;;;;;;;35.97;33.05;;;;;;;14.27;100.00;101063.47;6045215;23;20008;-81
2022/07/08 01:50:59;;;;;;;33.92;31.23;;;;;;;14.26;100.00;101062.66;6052211;23;20027;-83
2022/07/08 01:53:30;;;;;;;33.40;30.60;;;;;;;14.26;100.00;101073.34;6046139;23;20398;-85
2022/07/08 01:56:01;;;;;;;32.13;29.52;;;;;;;14.39;100.00;101061.69;6046095;23;20500;-84
2022/07/08 01:58:40;;;;;;;32.25;29.83;;;;;;;14.22;100.00;101069.50;6045901;23;20090;-84
2022/07/08 02:01:06;;;;;;;30.60;28.20;;;;;;;14.14;100.00;101072.44;6033151;23;20471;-82
2022/07/08 02:04:02;;;;;;;30.67;28.42;;;;;;;14.46;100.00;101081.13;6048851;23;20033;-83
2022/07/08 02:06:29;;;;;;;30.77;28.27;;;;;;;14.39;100.00;101075.06;6039190;23;20037;-83
2022/07/08 02:08:57;;;;;;;32.05;29.50;;;;;;;14.62;100.00;101079.78;6049809;23;20035;-83
2022/07/08 02:14:12;;;;;;;37.78;34.58;;;;;;;14.13;100.00;101086.81;6046277;23;20368;-83
2022/07/08 02:16:38;;;;;;;32.90;30.40;;;;;;;14.33;100.00;101087.44;6043650;23;20337;-82
2022/07/08 02:19:06;;;;;;;32.50;30.10;;;;;;;13.96;100.00;101091.91;6043712;23;20035;-80
2022/07/08 02:21:33;;;;;;;33.60;30.90;;;;;;;14.01;100.00;101096.59;6046669;23;20027;-80
2022/07/08 02:24:13;;;;;;;32.15;29.55;;;;;;;14.30;100.00;101095.91;6050088;23;20023;-82
2022/07/08 02:26:42;;;;;;;34.20;31.50;;;;;;;13.62;100.00;101090.56;6044332;23;20086;-82
2022/07/08 02:29:14;;;;;;;37.13;34.25;;;;;;;13.97;100.00;101097.03;6045181;23;20027;-86
2022/07/08 02:31:41;;;;;;;36.17;32.97;;;;;;;14.23;100.00;101111.19;6042173;23;20024;-83
2022/07/08 02:34:08;;;;;;;31.45;28.85;;;;;;;13.92;100.00;101104.91;6044726;23;20027;-82
2022/07/08 02:36:37;;;;;;;33.17;30.60;;;;;;;14.18;100.00;101111.03;6045998;23;20019;-83
2022/07/08 02:39:05;;;;;;;35.33;32.42;;;;;;;14.30;100.00;101113.78;6044004;23;20023;-83
2022/07/08 02:41:33;;;;;;;37.88;35.08;;;;;;;14.49;100.00;101123.44;6052198;23;20031;-81
2022/07/08 02:44:00;;;;;;;34.25;32.08;;;;;;;14.43;100.00;101122.50;6044813;23;20030;-81
2022/07/08 02:46:28;;;;;;;35.72;33.33;;;;;;;14.27;100.00;101117.72;6043146;23;20030;-82
2022/07/08 02:48:56;;;;;;;30.25;27.83;;;;;;;13.68;100.00;101121.72;6046830;23;20027;-83
2022/07/08 02:51:23;;;;;;;29.67;27.05;;;;;;;13.32;100.00;101119.69;6044278;23;20071;-84
2022/07/08 02:53:51;;;;;;;29.27;27.08;;;;;;;13.59;100.00;101120.34;6045189;23;20023;-83
2022/07/08 02:56:20;;;;;;;33.92;31.45;;;;;;;14.05;100.00;101124.50;6046625;23;20023;-82
2022/07/08 02:58:48;;;;;;;33.95;31.65;;;;;;;14.34;100.00;101123.84;6041936;23;20023;-82
2022/07/08 03:01:15;;;;;;;31.05;28.75;;;;;;;14.28;100.00;101132.72;6046818;23;20038;-83
2022/07/08 03:03:42;;;;;;;29.02;27.02;;;;;;;14.28;100.00;101126.53;6041883;23;20035;-81
2022/07/08 03:06:09;;;;;;;29.30;26.90;;;;;;;14.39;100.00;101125.81;6041218;23;20019;-82
2022/07/08 03:08:36;;;;;;;29.27;27.05;;;;;;;14.19;100.00;101124.19;6038865;23;20103;-82
2022/07/08 03:11:04;;;;;;;30.48;27.48;;;;;;;14.10;100.00;101127.31;6049745;23;20027;-83
2022/07/08 03:13:31;;;;;;;31.83;29.42;;;;;;;14.32;100.00;101131.25;6042950;23;20046;-81
2022/07/08 03:15:59;;;;;;;32.80;29.80;;;;;;;14.21;100.00;101131.94;6042792;23;20448;-81
2022/07/08 03:18:28;;;;;;;32.20;29.90;;;;;;;14.14;100.00;101133.88;6047944;23;20035;-83
2022/07/08 03:21:03;;;;;;;32.15;29.80;;;;;;;14.12;100.00;101131.41;6048662;23;20029;-82
2022/07/08 03:23:30;;;;;;;31.15;28.85;;;;;;;14.32;100.00;101139.25;6038967;23;20027;-82
2022/07/08 03:25:57;;;;;;;33.35;30.77;;;;;;;14.13;100.00;101134.91;6041394;23;20020;-83
2022/07/08 03:28:24;;;;;;;34.20;31.90;;;;;;;14.24;100.00;101139.53;6044654;23;20023;-83
2022/07/08 03:30:51;;;;;;;29.70;27.73;;;;;;;13.89;100.00;101142.72;6045212;23;20031;-82
2022/07/08 03:33:19;;;;;;;33.88;31.45;;;;;;;14.10;100.00;101148.69;6038477;23;20023;-80
2022/07/08 03:35:48;;;;;;;33.72;31.17;;;;;;;14.46;100.00;101145.28;6044959;23;20091;-82
2022/07/08 03:38:15;;;;;;;32.95;30.80;;;;;;;14.60;100.00;101143.31;6042853;23;20146;-83
2022/07/08 03:43:27;;;;;;;39.50;36.88;;;;;;;14.66;100.00;101140.56;6043059;23;20099;-82
2022/07/08 03:45:59;;;;;;;35.95;33.58;;;;;;;14.70;100.00;101137.44;6043251;23;20027;-82
2022/07/08 03:48:28;;;;;;;36.47;33.65;;;;;;;14.89;100.00;101126.53;6048695;23;20038;-83
2022/07/08 03:50:55;;;;;;;32.70;30.45;;;;;;;14.98;100.00;101127.06;6047296;23;20011;-82
2022/07/08 03:53:22;;;;;;;37.17;34.45;;;;;;;15.27;100.00;101136.13;6039239;23;20019;-83
2022/07/08 03:55:49;;;;;;;33.38;31.05;;;;;;;15.18;100.00;101137.47;6044308;23;20069;-83
2022/07/08 03:58:17;;;;;;;33.67;31.17;;;;;;;15.03;100.00;101137.06;6041239;23;20091;-83
2022/07/08 04:00:44;;;;;;;38.22;35.33;;;;;;;15.02;100.00;101133.56;6043142;23;20027;-83
2022/07/08 04:03:11;;;;;;;34.83;32.08;;;;;;;15.10;100.00;101143.16;6044759;23;20035;-82
2022/07/08 04:05:44;;;;;;;33.85;31.45;;;;;;;15.06;100.00;101144.63;6046576;23;20027;-83
2022/07/08 04:08:28;;;;;;;35.78;33.17;;;;;;;15.13;100.00;101137.38;6050097;23;20333;-85
2022/07/08 04:10:56;;;;;;;35.88;33.38;;;;;;;15.15;100.00;101150.50;6040882;23;20019;-81
2022/07/08 04:13:27;;;;;;;39.13;35.80;;;;;;;15.55;100.00;101150.75;6052211;23;20031;-81
2022/07/08 04:15:54;;;;;;;34.53;32.03;;;;;;;15.41;100.00;101141.31;6042313;23;20091;-81
2022/07/08 04:18:21;;;;;;;43.08;39.90;;;;;;;15.51;100.00;101141.56;6042452;23;20346;-81
2022/07/08 04:20:59;;;;;;;40.30;37.40;;;;;;;15.37;100.00;101146.31;6048186;23;20015;-84
2022/07/08 04:23:25;;;;;;;35.38;32.78;;;;;;;15.61;100.00;101149.84;6044127;23;20023;-83
2022/07/08 04:25:52;;;;;;;35.67;33.17;;;;;;;15.55;100.00;101138.22;6046774;23;20031;-82
2022/07/08 04:28:19;;;;;;;35.25;32.65;;;;;;;15.49;100.00;101151.66;6047580;23;20018;-82
2022/07/08 04:30:46;;;;;;;32.60;30.25;;;;;;;15.69;100.00;101152.22;6046192;23;20035;-84
2022/07/08 04:33:13;;;;;;;32.08;29.38;;;;;;;15.69;100.00;101157.59;6046275;23;20355;-82
2022/07/08 04:35:40;;;;;;;34.83;32.22;;;;;;;15.69;100.00;101149.56;6048464;23;20019;-83
2022/07/08 04:38:08;;;;;;;33.83;30.83;;;;;;;15.92;100.00;101153.34;6043804;23;20437;-81
2022/07/08 04:40:35;;;;;;;31.00;28.70;;;;;;;15.90;100.00;101158.91;6038158;23;20481;-81
2022/07/08 04:43:02;;;;;;;29.80;27.70;;;;;;;16.10;100.00;101157.81;6037349;23;20349;-81
2022/07/08 04:45:29;;;;;;;31.00;28.70;;;;;;;15.98;100.00;101165.81;6038650;23;20382;-80
2022/07/08 04:47:56;;;;;;;30.90;28.60;;;;;;;16.18;100.00;101160.94;6038450;23;20038;-81
2022/07/08 04:50:23;;;;;;;30.40;28.00;;;;;;;16.32;100.00;101172.25;6039405;23;20035;-80
2022/07/08 04:52:49;;;;;;;32.53;30.13;;;;;;;16.33;100.00;101168.50;6037626;23;20023;-82
2022/07/08 04:58:04;;;;;;;30.25;28.08;;;;;;;16.52;100.00;101168.38;6038294;23;20038;-81
2022/07/08 05:00:33;;;;;;;31.75;29.45;;;;;;;16.55;100.00;101170.59;6038975;23;20019;-82
2022/07/08 05:03:00;;;;;;;30.70;28.30;;;;;;;16.60;100.00;101171.53;6038051;23;20046;-83
2022/07/08 05:05:27;;;;;;;32.75;30.27;;;;;;;16.90;100.00;101171.41;6038280;23;20039;-82
2022/07/08 05:07:55;;;;;;;33.10;30.50;;;;;;;17.01;100.00;101167.06;6038764;23;20031;-83
2022/07/08 05:10:23;;;;;;;31.13;28.95;;;;;;;17.05;100.00;101167.41;6037804;23;20362;-82
2022/07/08 05:12:50;;;;;;;31.88;29.48;;;;;;;16.93;100.00;101176.28;6040885;23;20020;-82
2022/07/08 05:15:17;;;;;;;33.05;30.50;;;;;;;16.99;100.00;101171.03;6045343;23;20031;-82
2022/07/08 05:17:49;;;;;;;33.90;31.25;;;;;;;17.24;100.00;101166.16;6047339;23;20023;-83
2022/07/08 05:20:16;;;;;;;34.63;31.70;;;;;;;17.34;100.00;101166.38;6042217;23;20483;-81
2022/07/08 05:22:43;;;;;;;33.30;30.80;;;;;;;17.46;100.00;101174.38;6043803;23;20035;-81
2022/07/08 05:25:11;;;;;;;33.90;31.25;;;;;;;17.49;100.00;101173.06;6037865;23;20030;-81
2022/07/08 05:27:40;;;;;;;33.95;31.20;;;;;;;17.58;100.00;101168.97;6036852;23;20441;-81
2022/07/08 05:30:10;;;;;;;35.08;31.98;;;;;;;17.88;100.00;101170.56;6038075;23;20034;-82
2022/07/08 05:32:38;;;;;;;35.25;32.25;;;;;;;17.88;100.00;101165.97;6038351;23;20441;-82
2022/07/08 05:35:08;;;;;;;35.00;32.13;;;;;;;18.02;100.00;101167.31;6040149;23;20027;-81
2022/07/08 05:37:37;;;;;;;33.75;31.35;;;;;;;17.85;100.00;101167.31;6039229;23;20050;-81
2022/07/08 05:40:06;;;;;;;32.72;30.13;;;;;;;17.79;100.00;101160.22;6039234;23;20027;-82
2022/07/08 05:42:33;;;;;;;33.38;30.67;;;;;;;18.21;100.00;101157.09;6039827;23;20522;-83
2022/07/08 05:45:04;;;;;;;34.42;31.63;;;;;;;18.61;100.00;101155.25;6039026;23;20023;-82
2022/07/08 05:47:32;;;;;;;33.20;30.45;;;;;;;18.84;100.00;101154.22;6039653;23;20027;-82
2022/07/08 05:49:59;;;;;;;34.45;31.65;;;;;;;19.32;100.00;101152.63;6039228;23;20034;-81
2022/07/08 05:52:26;;;;;;;33.50;31.00;;;;;;;19.51;100.00;101158.47;6039634;23;20027;-81
2022/07/08 05:54:53;;;;;;;31.27;29.17;;;;;;;22.41;100.00;101145.31;6038727;23;20023;-81
2022/07/08 05:57:21;;;;;;;28.25;26.40;;;;;;;24.12;100.00;101130.50;6039624;23;20047;-80
2022/07/08 05:59:50;;;;;;;27.98;25.98;;;;;;;21.82;100.00;101143.22;6039197;23;20027;-82
2022/07/08 06:02:19;;;;;;;31.35;29.02;;;;;;;20.87;100.00;101142.72;6038910;23;20073;-81
2022/07/08 06:04:46;;;;;;;31.73;29.40;;;;;;;20.83;100.00;101150.56;6039545;23;20023;-81
2022/07/08 06:07:13;;;;;;;32.83;30.45;;;;;;;20.29;100.00;101146.19;6038869;23;20027;-82
2022/07/08 06:09:40;;;;;;;34.70;32.03;;;;;;;20.31;100.00;101138.66;6038643;23;20090;-81
2022/07/08 06:12:07;;;;;;;34.42;31.83;;;;;;;20.39;100.00;101145.44;6039028;23;20448;-81
2022/07/08 06:14:34;;;;;;;34.60;32.00;;;;;;;20.42;100.00;101139.50;6039485;23;20030;-81
2022/07/08 06:17:01;;;;;;;36.15;33.22;;;;;;;20.17;100.00;101134.78;6039080;23;20074;-82
2022/07/08 06:19:30;;;;;;;38.50;35.70;;;;;;;20.50;100.00;101146.31;6039184;23;20033;-82
2022/07/08 06:21:57;;;;;;;37.40;34.60;;;;;;;20.46;100.00;101137.94;6039418;23;20098;-81
2022/07/08 06:24:24;;;;;;;38.47;35.42;;;;;;;20.29;100.00;101140.78;6039218;23;20031;-82
2022/07/08 06:26:52;;;;;;;35.60;33.00;;;;;;;20.94;100.00;101143.31;6039195;23;20078;-82
2022/07/08 06:29:19;;;;;;;34.13;31.75;;;;;;;21.00;100.00;101137.66;6039482;23;20023;-84
2022/07/08 06:31:47;;;;;;;33.90;31.50;;;;;;;21.55;100.00;101140.78;6040237;23;20483;-84
2022/07/08 06:34:14;;;;;;;32.13;29.83;;;;;;;21.95;100.00;101136.44;6039952;23;20031;-84
2022/07/08 06:36:42;;;;;;;33.65;31.17;;;;;;;21.57;100.00;101133.19;6040534;23;20027;-84
2022/07/08 06:39:09;;;;;;;35.13;32.38;;;;;;;21.99;100.00;101129.41;6040475;23;20027;-83
2022/07/08 06:41:36;;;;;;;32.03;29.83;;;;;;;21.95;100.00;101131.03;6038613;23;20023;-83
2022/07/08 06:44:04;;;;;;;31.80;29.38;;;;;;;21.77;100.00;101134.28;6038703;23;20023;-82
2022/07/08 06:46:33;;;;;;;30.58;28.38;;;;;;;21.60;100.00;101131.84;6039920;23;20061;-81
2022/07/08 06:49:00;;;;;;;30.17;28.17;;;;;;;22.10;100.00;101131.03;6039348;23;20046;-81
2022/07/08 06:51:28;;;;;;;29.75;27.45;;;;;;;22.01;100.00;101129.16;6039105;23;20030;-82
2022/07/08 06:56:37;;;;;;;29.90;27.70;;;;;;;22.40;100.00;101118.53;6032238;23;20336;-81
2022/07/08 06:59:06;;;;;;;29.02;27.13;;;;;;;23.05;100.00;101118.56;6037826;23;20094;-81
2022/07/08 07:01:32;;;;;;;29.30;26.88;;;;;;;22.92;100.00;101111.81;6038602;23;20031;-81
2022/07/08 07:03:59;;;;;;;31.27;29.13;;;;;;;23.12;100.00;101110.94;6039021;23;20019;-81
2022/07/08 07:06:26;;;;;;;31.85;29.50;;;;;;;23.29;100.00;101111.34;6038819;23;20019;-82
2022/07/08 07:08:53;;;;;;;29.33;27.33;;;;;;;23.58;100.00;101118.75;6039132;23;20029;-82
2022/07/08 07:11:26;;;;;;;29.30;27.40;;;;;;;22.76;100.00;101115.72;6038245;23;20102;-82
2022/07/08 07:13:53;;;;;;;37.00;33.47;;;;;;;23.61;100.00;101115.47;6038996;23;20019;-83
2022/07/08 07:16:21;;;;;;;30.35;28.25;;;;;;;23.19;100.00;101113.34;6038546;23;20457;-83
2022/07/08 07:18:48;;;;;;;30.80;28.88;;;;;;;23.53;100.00;101107.94;6039244;23;20106;-83
2022/07/08 07:21:15;;;;;;;29.30;27.35;;;;;;;23.90;100.00;101111.97;6039339;23;20023;-82
2022/07/08 07:23:42;;;;;;;29.10;27.33;;;;;;;23.87;100.00;101104.41;6039277;23;20034;-81
2022/07/08 07:26:14;;;;;;;29.38;27.10;;;;;;;23.50;100.00;101111.22;6038869;23;20038;-82
2022/07/08 07:28:42;;;;;;;28.25;26.27;;;;;;;24.55;100.00;101115.13;6038986;23;20023;-81
2022/07/08 07:31:09;;;;;;;29.48;27.45;;;;;;;24.66;100.00;101105.75;6038617;23;20023;-81
2022/07/08 07:33:36;;;;;;;27.05;25.42;;;;;;;24.84;100.00;101109.59;6039224;23;20023;-82
2022/07/08 07:36:14;;;;;;;;;;;;;;;;;;;;;
2022/07/08 07:38:43;;;;;;;31.02;28.77;;;;;;;24.92;100.00;101110.84;6040653;23;20101;-81
2022/07/08 07:41:12;;;;;;;30.88;28.77;;;;;;;24.25;100.00;101107.31;6038029;23;20500;-80
2022/07/08 07:43:39;;;;;;;29.70;27.80;;;;;;;24.54;100.00;101099.13;6038747;23;20019;-82
2022/07/08 07:46:07;;;;;;;30.25;28.33;;;;;;;23.88;100.00;101106.06;6037737;23;20110;-81
2022/07/08 07:48:34;;;;;;;29.92;27.92;;;;;;;24.31;100.00;101100.72;6037694;23;20033;-81
2022/07/08 07:51:01;;;;;;;30.95;28.92;;;;;;;24.77;100.00;101101.00;6038511;23;20023;-81
2022/07/08 07:53:28;;;;;;;30.55;28.38;;;;;;;25.23;100.00;101088.69;6039255;23;20479;-81
2022/07/08 07:55:57;;;;;;;29.15;27.35;;;;;;;24.92;100.00;101091.84;6039175;23;20460;-83
2022/07/08 07:58:25;;;;;;;27.33;25.63;;;;;;;24.80;100.00;101083.31;6041169;23;20096;-83
2022/07/08 08:00:58;;;;;;;28.45;26.75;;;;;;;25.16;100.00;101071.97;6042016;23;20340;-84
2022/07/08 08:03:33;;;;;;;30.20;28.27;;;;;;;25.48;100.00;101082.06;6049659;23;20034;-85
2022/07/08 08:06:05;;;;;;;29.00;27.10;;;;;;;25.72;100.00;101076.47;6047584;23;20023;-83
2022/07/08 08:08:35;;;;;;;29.70;27.77;;;;;;;25.81;100.00;101078.25;6046367;23;20393;-83
2022/07/08 08:11:03;;;;;;;29.83;27.50;;;;;;;25.24;100.00;101079.47;6044378;23;20023;-83
2022/07/08 08:13:31;;;;;;;30.88;28.55;;;;;;;25.69;100.00;101085.22;6045471;23;20094;-84
2022/07/08 08:15:58;;;;;;;29.38;27.45;;;;;;;26.07;100.00;101076.97;6045625;23;20019;-84
2022/07/08 08:18:27;;;;;;;29.52;27.52;;;;;;;26.09;100.00;101077.47;6045428;23;20409;-83
2022/07/08 08:20:55;;;;;;;29.17;27.05;;;;;;;26.61;100.00;101073.44;6044659;23;20513;-83
2022/07/08 08:23:23;;;;;;;30.85;28.60;;;;;;;26.90;100.00;101073.06;6044019;23;20015;-84
2022/07/08 08:25:50;;;;;;;29.38;27.13;;;;;;;26.87;100.00;101067.41;6043273;23;20023;-83
2022/07/08 08:28:17;;;;;;;29.83;27.63;;;;;;;26.65;100.00;101066.25;6042324;23;20027;-83
2022/07/08 08:30:44;;;;;;;30.55;28.52;;;;;;;26.42;100.00;101057.19;6046257;23;20023;-82
2022/07/08 08:33:11;;;;;;;28.98;27.02;;;;;;;26.77;100.00;101064.94;6040153;23;20019;-81
2022/07/08 08:35:38;;;;;;;29.05;26.92;;;;;;;27.01;100.00;101059.19;6040172;23;20105;-82
2022/07/08 08:38:08;;;;;;;28.70;26.80;;;;;;;26.82;100.00;101053.91;6039615;23;20473;-82
2022/07/08 08:40:38;;;;;;;26.00;24.38;;;;;;;27.31;100.00;101057.69;6040810;23;20034;-84
2022/07/08 08:43:05;;;;;;;28.17;26.27;;;;;;;27.14;100.00;101058.34;6040316;23;20107;-85
2022/07/08 08:45:33;;;;;;;27.70;25.95;;;;;;;26.90;100.00;101048.56;6040005;23;20326;-84
2022/07/08 08:48:06;;;;;;;27.00;25.30;;;;;;;27.19;100.00;101055.53;6040016;23;20055;-82
2022/07/08 08:53:33;;;;;;;29.52;27.50;;;;;;;27.89;94.46;101032.19;6038765;23;20067;-85
2022/07/08 08:56:09;;;;;;;28.38;26.42;;;;;;;27.79;96.12;101038.75;6051807;23;20023;-84
2022/07/08 08:58:39;;;;;;;27.63;25.73;;;;;;;27.38;94.40;101038.97;6055930;23;20050;-83
2022/07/08 09:01:08;;;;;;;27.60;25.70;;;;;;;27.56;99.61;101031.69;6056634;23;20023;-84
2022/07/08 09:03:35;;;;;;;28.40;26.55;;;;;;;27.95;95.23;101030.13;6055858;23;20027;-84
2022/07/08 09:06:03;;;;;;;27.52;25.73;;;;;;;28.16;92.63;101024.91;6055771;23;20038;-85
2022/07/08 09:08:36;;;;;;;28.63;26.40;;;;;;;28.43;86.04;101018.41;6055697;23;20064;-84
2022/07/08 09:11:12;;;;;;;27.40;25.70;;;;;;;27.90;94.14;101025.63;6053249;23;20110;-84
2022/07/08 09:13:41;;;;;;;26.48;24.77;;;;;;;28.03;90.34;101029.38;6051264;23;20502;-83
2022/07/08 09:16:09;;;;;;;25.77;23.85;;;;;;;28.75;92.03;101017.16;6054802;23;20023;-83
2022/07/08 09:18:38;;;;;;;25.65;23.63;;;;;;;28.32;83.72;101023.31;6039281;23;20030;-83
2022/07/08 09:21:07;;;;;;;25.98;24.20;;;;;;;27.94;89.94;101015.69;6038997;23;20019;-82
2022/07/08 09:23:37;;;;;;;28.13;25.98;;;;;;;28.66;85.59;101008.97;6039135;23;20027;-83
2022/07/08 09:26:06;;;;;;;26.02;24.40;;;;;;;28.68;87.40;101016.81;6039599;23;20019;-82
2022/07/08 09:28:36;;;;;;;25.73;24.10;;;;;;;28.76;81.81;101016.03;6039250;23;20019;-84
2022/07/08 09:31:05;;;;;;;27.90;26.20;;;;;;;29.05;85.32;101025.53;6040416;23;20466;-83
2022/07/08 09:33:34;;;;;;;28.85;27.25;;;;;;;28.62;84.07;101024.38;6040458;23;20024;-84
2022/07/08 09:36:02;;;;;;;27.30;25.45;;;;;;;28.79;81.30;101029.06;6040358;23;20023;-84
2022/07/08 09:38:30;;;;;;;29.80;28.00;;;;;;;28.61;79.32;101022.78;6039729;23;20079;-84
2022/07/08 09:41:02;;;;;;;28.70;26.85;;;;;;;29.02;82.36;101016.06;6039729;23;20102;-84
2022/07/08 09:43:29;;;;;;;31.03;29.13;;;;;;;28.86;79.57;101012.97;6038422;23;20023;-84
2022/07/08 09:46:03;;;;;;;26.17;24.65;;;;;;;28.20;76.51;101014.94;6038418;23;20023;-83
2022/07/08 09:48:34;;;;;;;25.42;23.92;;;;;;;28.30;83.97;101006.47;6039223;23;20344;-83
2022/07/08 09:51:07;;;;;;;26.45;24.95;;;;;;;29.02;85.53;101013.31;6039925;23;20026;-82
2022/07/08 09:53:35;;;;;;;24.70;23.00;;;;;;;29.09;80.34;100999.97;6040051;23;20136;-82
2022/07/08 09:56:04;;;;;;;24.80;22.88;;;;;;;28.97;80.75;101005.25;6038691;23;20015;-82
2022/07/08 09:58:34;;;;;;;26.25;24.55;;;;;;;29.13;77.37;100998.16;6039002;23;20031;-82
2022/07/08 10:01:01;;;;;;;27.80;25.60;;;;;;;29.25;78.92;100983.03;6038855;23;20341;-83
2022/07/08 10:03:29;;;;;;;29.35;27.55;;;;;;;29.20;76.56;100995.75;6039114;23;20019;-81
2022/07/08 10:05:57;;;;;;;27.45;25.65;;;;;;;29.08;71.45;100986.59;6039262;23;20019;-82
2022/07/08 10:08:24;;;;;;;28.52;26.92;;;;;;;28.77;84.49;100980.16;6040262;23;20027;-82
2022/07/08 10:10:59;;;;;;;28.20;26.60;;;;;;;29.29;81.15;100973.88;6048655;23;20059;-83
2022/07/08 10:13:33;;;;;;;26.25;24.58;;;;;;;29.60;73.56;100972.78;6053729;23;20046;-83
2022/07/08 10:16:04;;;;;;;27.98;25.98;;;;;;;29.72;78.79;100977.59;6051321;23;20023;-83
2022/07/08 10:18:38;;;;;;;30.88;28.65;;;;;;;30.26;70.07;100956.69;6052204;23;20019;-84
2022/07/08 10:21:10;;;;;;;28.60;26.75;;;;;;;29.90;72.14;100965.44;6050771;23;20501;-83
2022/07/08 10:23:38;;;;;;;;;;;;;;;29.14;80.84;100964.25;6040090;23;20027;-82
2022/07/08 10:26:07;;;;;;;29.25;27.25;;;;;;;28.43;70.34;100963.78;6050151;23;19925;-84
2022/07/08 10:28:40;;;;;;;25.85;24.02;;;;;;;28.79;81.79;100976.31;6053707;23;20071;-84
2022/07/08 10:31:21;;;;;;;28.67;26.98;;;;;;;29.34;74.37;100981.06;6051531;23;20649;-83
2022/07/08 10:33:49;;;;;;;26.98;25.10;;;;;;;29.81;82.33;100970.16;6054251;23;20038;-83
2022/07/08 10:36:19;;;;;;;27.48;25.77;;;;;;;29.39;69.97;100968.03;6050685;23;20019;-83
2022/07/08 10:38:48;;;;;;;28.77;26.83;;;;;;;30.06;69.80;100965.66;6055858;23;20019;-82
2022/07/08 10:41:20;;;;;;;25.70;24.00;;;;;;;30.13;69.75;100960.44;6057628;23;20027;-83
2022/07/08 10:43:52;;;;;;;23.75;22.35;;;;;;;29.69;68.71;100946.22;6055307;23;20026;-81
2022/07/08 10:46:26;;;;;;;29.45;27.13;;;;;;;30.26;65.76;100969.56;6051271;23;20164;-86
2022/07/08 10:48:55;;;;;;;26.17;24.27;;;;;;;30.38;65.42;100955.97;6045634;23;20019;-84
2022/07/08 10:51:46;;;;;;;26.25;24.27;;;;;;;29.98;66.34;100950.06;6049783;23;20019;-85
2022/07/08 10:54:32;;;;;;;25.98;24.27;;;;;;;30.58;73.38;100957.06;6039434;23;20023;-85
2022/07/08 10:57:02;;;;;;;26.52;24.73;;;;;;;30.62;62.91;100962.69;6039690;23;20083;-84
2022/07/08 10:59:33;;;;;;;26.58;24.67;;;;;;;30.03;64.20;100955.38;6039588;23;20047;-84
2022/07/08 11:02:03;;;;;;;26.40;24.45;;;;;;;29.62;64.75;100954.94;6039131;23;20106;-84
2022/07/08 11:04:42;;;;;;;29.42;27.33;;;;;;;29.05;72.54;100941.59;6039492;23;20027;-84
2022/07/08 11:07:26;;;;;;;26.42;24.40;;;;;;;29.03;80.47;100949.31;6039440;23;20023;-84
2022/07/08 11:09:55;;;;;;;27.23;25.33;;;;;;;30.00;73.70;100942.34;6039541;23;20023;-83
2022/07/08 11:12:26;;;;;;;27.67;25.85;;;;;;;30.68;68.66;100947.63;6038409;23;20150;-84
2022/07/08 11:14:58;;;;;;;27.08;25.05;;;;;;;31.26;64.32;100946.59;6039692;23;20059;-83
2022/07/08 11:17:28;;;;;;;26.73;24.85;;;;;;;30.54;56.45;100929.53;6039471;23;20034;-82
2022/07/08 11:19:57;;;;;;;26.35;24.35;;;;;;;30.22;63.51;100942.03;6039523;23;20106;-83
2022/07/08 11:22:25;;;;;;;26.25;24.00;;;;;;;30.26;73.01;100923.81;6039559;23;20026;-82
2022/07/08 11:24:53;;;;;;;25.70;24.00;;;;;;;30.98;66.00;100912.69;6039331;23;20020;-82
2022/07/08 11:27:24;;;;;;;26.73;24.77;;;;;;;30.16;62.42;100923.38;6038597;23;20067;-82
2022/07/08 11:29:56;;;;;;;29.85;27.70;;;;;;;30.80;59.60;100912.91;6038922;23;20031;-83
2022/07/08 11:32:24;;;;;;;29.25;27.33;;;;;;;31.22;64.00;100904.50;6039243;23;20082;-82
2022/07/08 11:34:53;;;;;;;26.67;24.88;;;;;;;30.94;60.17;100901.59;6038858;23;20020;-81
2022/07/08 11:37:20;;;;;;;28.52;26.63;;;;;;;30.71;56.67;100895.72;6038842;23;20107;-82